地図

経路データ

SID SEASON NUMBER BASIN SUBBASIN NAME ISO_TIME NATURE LAT LON WMO_WIND WMO_PRES WMO_AGENCY TRACK_TYPE DIST2LAND LANDFALL IFLAG USA_AGENCY USA_ATCF_ID USA_LAT USA_LON USA_RECORD USA_STATUS USA_WIND USA_PRES USA_SSHS USA_R34_NE USA_R34_SE USA_R34_SW USA_R34_NW USA_R50_NE USA_R50_SE USA_R50_SW USA_R50_NW USA_R64_NE USA_R64_SE USA_R64_SW USA_R64_NW USA_POCI USA_ROCI USA_RMW USA_EYE TOKYO_LAT TOKYO_LON TOKYO_GRADE TOKYO_WIND TOKYO_PRES TOKYO_R50_DIR TOKYO_R50_LONG TOKYO_R50_SHORT TOKYO_R30_DIR TOKYO_R30_LONG TOKYO_R30_SHORT TOKYO_LAND CMA_LAT CMA_LON CMA_CAT CMA_WIND CMA_PRES HKO_LAT HKO_LON HKO_CAT HKO_WIND HKO_PRES NEWDELHI_LAT NEWDELHI_LON NEWDELHI_GRADE NEWDELHI_WIND NEWDELHI_PRES NEWDELHI_CI NEWDELHI_DP NEWDELHI_POCI REUNION_LAT REUNION_LON REUNION_TYPE REUNION_WIND REUNION_PRES REUNION_TNUM REUNION_CI REUNION_RMW REUNION_R34_NE REUNION_R34_SE REUNION_R34_SW REUNION_R34_NW REUNION_R50_NE REUNION_R50_SE REUNION_R50_SW REUNION_R50_NW REUNION_R64_NE REUNION_R64_SE REUNION_R64_SW REUNION_R64_NW BOM_LAT BOM_LON BOM_TYPE BOM_WIND BOM_PRES BOM_TNUM BOM_CI BOM_RMW BOM_R34_NE BOM_R34_SE BOM_R34_SW BOM_R34_NW BOM_R50_NE BOM_R50_SE BOM_R50_SW BOM_R50_NW BOM_R64_NE BOM_R64_SE BOM_R64_SW BOM_R64_NW BOM_ROCI BOM_POCI BOM_EYE BOM_POS_METHOD BOM_PRES_METHOD NADI_LAT NADI_LON NADI_CAT NADI_WIND NADI_PRES WELLINGTON_LAT WELLINGTON_LON WELLINGTON_WIND WELLINGTON_PRES DS824_LAT DS824_LON DS824_STAGE DS824_WIND DS824_PRES TD9636_LAT TD9636_LON TD9636_STAGE TD9636_WIND TD9636_PRES TD9635_LAT TD9635_LON TD9635_WIND TD9635_PRES TD9635_ROCI NEUMANN_LAT NEUMANN_LON NEUMANN_CLASS NEUMANN_WIND NEUMANN_PRES MLC_LAT MLC_LON MLC_CLASS MLC_WIND MLC_PRES USA_GUST BOM_GUST BOM_GUST_PER REUNION_GUST REUNION_GUST_PER USA_SEAHGT USA_SEARAD_NE USA_SEARAD_SE USA_SEARAD_SW USA_SEARAD_NW STORM_SPEED STORM_DIR
1898152N11060 1898 14 NI AS NOT_NAMED 1898-06-01 00:00:00 TS 11.4000 60.0000 main 613 608 _________O____ -1 11.4000 60.0000 TC 25 4 0
1898152N11060 1898 14 NI AS NOT_NAMED 1898-06-01 03:00:00 TS 11.6100 59.9717 main 608 592 _________PO___ -1 11.7150 59.9575 TC 25 11.4000 60.0000 7 5 351
1898152N11060 1898 14 NI AS NOT_NAMED 1898-06-01 06:00:00 TS 11.8669 59.9169 main 592 578 _________OP___ -1 12.0000 59.9000 TC 25 11.6672 59.9422 7 5 346
1898152N11060 1898 14 NI AS NOT_NAMED 1898-06-01 09:00:00 TS 12.1118 59.8418 main 578 576 _________PP___ -1 12.2425 59.8150 TC 25 11.9375 59.8775 7 5 342
1898152N11060 1898 14 NI AS NOT_NAMED 1898-06-01 12:00:00 TS 12.3570 59.7495 main 565 553 _________OP___ -1 12.5000 59.7000 TC 25 12.2140 59.7991 7 6 339
1898152N11060 1898 14 NI AS NOT_NAMED 1898-06-01 15:00:00 TS 12.6713 59.6288 main 553 543 _________PO___ -1 12.8425 59.5575 TC 25 12.5000 59.7000 7 7 338
1898152N11060 1898 14 NI AS NOT_NAMED 1898-06-01 18:00:00 TS 12.9992 59.4878 main 544 534 _________OP___ -1 13.2000 59.4000 TC 25 12.7985 59.5756 7 7 336
1898152N11060 1898 14 NI AS NOT_NAMED 1898-06-01 21:00:00 TS 13.3025 59.3436 main 526 519 _________PP___ -1 13.4925 59.2574 TC 25 13.1125 59.4299 7 7 335
1898152N11060 1898 14 NI AS NOT_NAMED 1898-06-02 00:00:00 TS 13.6227 59.1846 main 521 508 _________OP___ -1 13.8000 59.1000 TC 25 13.4453 59.2692 7 8 334
1898152N11060 1898 14 NI AS NOT_NAMED 1898-06-02 03:00:00 TS 13.9925 59.0000 main 511 468 _________PO___ -1 14.1850 58.9000 TC 25 13.8000 59.1000 7 9 335
1898152N11060 1898 14 NI AS NOT_NAMED 1898-06-02 06:00:00 TS 14.3872 58.8100 main 468 418 _________OP___ -1 14.6000 58.7000 TC 25 14.1744 58.9201 7 9 336
1898152N11060 1898 14 NI AS NOT_NAMED 1898-06-02 09:00:00 TS 14.7850 58.6350 main 418 376 _________PP___ -1 15.0000 58.5349 TC 25 14.5701 58.7351 7 9 338
1898152N11060 1898 14 NI AS NOT_NAMED 1898-06-02 12:00:00 TS 15.1903 58.4788 main 376 334 _________OP___ -1 15.4000 58.4000 TC 25 14.9807 58.5576 7 9 341
1898152N11060 1898 14 NI AS NOT_NAMED 1898-06-02 15:00:00 TS 15.5962 58.3462 main 327 286 _________PO___ -1 15.7925 58.2924 TC 25 15.4000 58.4000 7 8 344
1898152N11060 1898 14 NI AS NOT_NAMED 1898-06-02 18:00:00 TS 15.9845 58.2370 main 286 246 _________OP___ -1 16.2000 58.2000 TC 25 15.7691 58.2740 7 8 346
1898152N11060 1898 14 NI AS NOT_NAMED 1898-06-02 21:00:00 TS 16.3788 58.1347 main 246 207 _________PP___ -1 16.6050 58.0999 TC 25 16.1525 58.1694 7 9 348
1898152N11060 1898 14 NI AS NOT_NAMED 1898-06-03 00:00:00 TS 16.8424 58.0401 main 207 167 _________OP___ -1 17.1000 58.0000 TC 25 16.5847 58.0802 7 11 350
1898152N11060 1898 14 NI AS NOT_NAMED 1898-06-03 03:00:00 TS 17.4275 57.9463 main 158 101 _________PO___ -1 17.7550 57.8926 TC 25 17.1000 58.0000 7 13 352
1898152N11060 1898 14 NI AS NOT_NAMED 1898-06-03 06:00:00 TS 18.1336 57.8490 main 100 11 _________OP___ -1 18.5000 57.8000 TC 25 17.7672 57.8980 7 15 353
1898152N11060 1898 14 NI AS NOT_NAMED 1898-06-03 09:00:00 TS 18.8925 57.7667 main 11 0 _________PP___ -1 19.2725 57.7276 TC 25 18.5126 57.8059 7 15 355
1898152N11060 1898 14 NI AS NOT_NAMED 1898-06-03 12:00:00 TS 19.6383 57.7178 main 0 0 _________OP___ -1 20.0000 57.7000 TC 25 19.2767 57.7356 7 14 358
1898152N11060 1898 14 NI AS NOT_NAMED 1898-06-03 15:00:00 TS 20.2900 57.7174 main 0 0 _________PO___ -1 20.5800 57.7349 TC 25 20.0000 57.7000 7 12 2
1898152N11060 1898 14 NI AS NOT_NAMED 1898-06-03 18:00:00 TS 20.8643 57.7567 main 0 0 _________OP___ -1 21.1000 57.8000 TC 25 20.6286 57.7134 7 12 4
1898152N11060 1898 14 NI AS NOT_NAMED 1898-06-03 21:00:00 TS 21.4387 57.8058 main 0 0 _________PP___ -1 21.6725 57.8500 TC 25 21.2048 57.7617 7 11 5
1898152N11060 1898 14 NI AS NOT_NAMED 1898-06-04 00:00:00 TS 21.9643 57.8646 main 0 0 _________OP___ -1 22.2000 57.9000 TC 25 21.7286 57.8292 7 10 7
1898152N11060 1898 14 NI AS NOT_NAMED 1898-06-04 03:00:00 TS 22.4150 57.9250 main 0 0 _________PO___ -1 22.6300 57.9500 TC 25 22.2000 57.9000 7 9 7
1898152N11060 1898 14 NI AS NOT_NAMED 1898-06-04 06:00:00 TS 22.8207 57.9751 main 0 0 _________OP___ -1 23.0000 58.0000 TC 25 22.6415 57.9501 7 8 6
1898152N11060 1898 14 NI AS NOT_NAMED 1898-06-04 09:00:00 TS 23.1987 58.0251 main 0 0 _________PP___ -1 23.3650 58.0500 TC 25 23.0324 58.0001 7 7 7
1898152N11060 1898 14 NI AS NOT_NAMED 1898-06-04 12:00:00 TS 23.5411 58.0750 main 0 0 _________OP___ -1 23.7000 58.1000 TC 25 23.3821 58.0501 7 7 7
1898152N11060 1898 14 NI AS NOT_NAMED 1898-06-04 15:00:00 TS 23.8575 58.1250 main 30 30 _________PO___ -1 24.0150 58.1500 TC 25 23.7000 58.1000 7 6 8
1898152N11060 1898 14 NI AS NOT_NAMED 1898-06-04 18:00:00 TS 24.1256 58.1714 main 54 54 _________OP___ -1 24.3000 58.2000 TC 25 23.9947 58.1499 7 5 10
1898152N11060 1898 14 NI AS NOT_NAMED 1898-06-04 21:00:00 TS 24.3865 58.2199 main 83 83 _________PP___ -1 24.5575 58.2500 TC 25 24.2726 58.1998 7 5 10
1898152N11060 1898 14 NI AS NOT_NAMED 1898-06-05 00:00:00 TS 24.6261 58.2666 main 108 89 _________OP___ -1 24.8000 58.3000 TC 25 24.5391 58.2498 7 4 9
1898152N11060 1898 14 NI AS NOT_NAMED 1898-06-05 03:00:00 NR 24.8000 58.3000 main 89 __________O___ -1 TC 24.8000 58.3000 7 4 11

IBTrACS Databaseについて

本データベースは、米国NOAAが公開する1842年以降の世界の熱帯低気圧のベストトラックデータアーカイブInternational Best Track Archive for Climate Stewardship (IBTrACS)を、ウェブで閲覧しやすい形式に変換したものです。

最終更新日:2021-12-03